createdAt,value
2023-03-22T00:02:26.313Z,12.52
2023-03-22T00:04:54.673Z,12.57
2023-03-22T00:07:22.887Z,12.56
2023-03-22T00:09:52.648Z,12.53
2023-03-22T00:12:20.831Z,12.52
2023-03-22T00:14:49.597Z,12.51
2023-03-22T00:17:18.508Z,12.56
2023-03-22T00:19:47.526Z,12.56
2023-03-22T00:22:16.373Z,12.56
2023-03-22T00:24:44.838Z,12.54
2023-03-22T00:27:14.400Z,12.53
2023-03-22T00:29:42.622Z,12.56
2023-03-22T00:32:10.818Z,12.56
2023-03-22T00:34:38.999Z,12.57
2023-03-22T00:37:08.171Z,12.56
2023-03-22T00:39:36.400Z,12.57
2023-03-22T00:42:05.387Z,12.61
2023-03-22T00:44:35.103Z,12.58
2023-03-22T00:47:03.363Z,12.60
2023-03-22T00:49:31.734Z,12.60
2023-03-22T00:51:59.883Z,12.58
2023-03-22T00:54:28.032Z,12.61
2023-03-22T00:56:56.320Z,12.57
2023-03-22T00:59:24.809Z,12.54
2023-03-22T01:01:54.453Z,12.57
2023-03-22T01:04:26.375Z,12.61
2023-03-22T01:06:59.381Z,12.59
2023-03-22T01:09:31.066Z,12.52
2023-03-22T01:11:59.947Z,12.52
2023-03-22T01:14:28.618Z,12.42
2023-03-22T01:16:58.541Z,12.29
2023-03-22T01:19:27.645Z,12.23
2023-03-22T01:21:56.276Z,12.13
2023-03-22T01:24:25.079Z,12.00
2023-03-22T01:26:53.447Z,11.85
2023-03-22T01:29:21.983Z,11.83
2023-03-22T01:31:50.195Z,11.71
2023-03-22T01:34:19.961Z,11.61
2023-03-22T01:36:48.113Z,11.57
2023-03-22T01:39:16.547Z,11.44
2023-03-22T01:41:44.878Z,11.43
2023-03-22T01:44:15.607Z,11.45
2023-03-22T01:46:44.846Z,11.38
2023-03-22T01:49:17.224Z,11.36
2023-03-22T01:51:50.733Z,11.35
2023-03-22T01:54:26.231Z,11.23
2023-03-22T01:56:54.502Z,11.23
2023-03-22T01:59:23.638Z,11.20
2023-03-22T02:01:51.898Z,11.13
2023-03-22T02:04:23.506Z,11.13
2023-03-22T02:06:58.036Z,11.03
2023-03-22T02:09:26.243Z,11.00
2023-03-22T02:12:06.979Z,10.92
2023-03-22T02:14:59.771Z,10.82
2023-03-22T02:17:35.421Z,10.74
2023-03-22T02:20:41.929Z,10.64
2023-03-22T02:23:54.496Z,10.59
2023-03-22T02:26:53.513Z,10.55
2023-03-22T02:29:30.182Z,10.52
2023-03-22T02:32:40.053Z,10.46
2023-03-22T02:35:34.698Z,10.39
2023-03-22T02:38:45.965Z,10.34
2023-03-22T02:41:22.926Z,10.23
2023-03-22T02:44:02.991Z,10.25
2023-03-22T02:46:38.982Z,10.30
2023-03-22T02:49:16.036Z,10.22
2023-03-22T02:51:48.072Z,10.20
2023-03-22T02:54:23.962Z,10.12
2023-03-22T02:57:00.446Z,10.10
2023-03-22T02:59:32.622Z,10.09
2023-03-22T03:02:04.601Z,10.01
2023-03-22T03:04:36.697Z,9.97
2023-03-22T03:07:09.495Z,9.96
2023-03-22T03:09:39.336Z,9.98
2023-03-22T03:12:16.000Z,9.95
2023-03-22T03:14:44.116Z,9.92
2023-03-22T03:17:23.497Z,9.93
2023-03-22T03:20:02.891Z,9.92
2023-03-22T03:22:46.103Z,9.84
2023-03-22T03:25:22.851Z,9.81
2023-03-22T03:28:01.228Z,9.77
2023-03-22T03:30:35.475Z,9.73
2023-03-22T03:33:10.624Z,9.71
2023-03-22T03:35:43.786Z,9.67
2023-03-22T03:38:15.280Z,9.68
2023-03-22T03:40:46.125Z,9.61
2023-03-22T03:43:16.823Z,9.63
2023-03-22T03:45:46.211Z,9.57
2023-03-22T03:48:20.146Z,9.59
2023-03-22T03:50:50.439Z,9.55
2023-03-22T03:53:18.588Z,9.48
2023-03-22T03:55:46.731Z,9.46
2023-03-22T03:58:17.326Z,9.42
2023-03-22T04:00:46.848Z,9.40
2023-03-22T04:03:15.884Z,9.34
2023-03-22T04:05:44.159Z,9.31
2023-03-22T04:08:12.381Z,9.32
2023-03-22T04:10:40.985Z,9.30
2023-03-22T04:13:09.299Z,9.30
2023-03-22T04:15:38.846Z,9.30
2023-03-22T04:18:07.238Z,9.25
2023-03-22T04:20:35.526Z,9.24
2023-03-22T04:23:03.691Z,9.21
2023-03-22T04:25:34.017Z,9.20
2023-03-22T04:28:04.429Z,9.14
2023-03-22T04:30:36.439Z,9.14
2023-03-22T04:33:07.322Z,9.15
2023-03-22T04:35:35.852Z,9.12
2023-03-22T04:38:04.147Z,9.12
2023-03-22T04:40:36.627Z,9.14
2023-03-22T04:43:05.099Z,9.07
2023-03-22T04:45:36.059Z,9.01
2023-03-22T04:48:07.973Z,9.01
2023-03-22T04:50:36.078Z,8.98
2023-03-22T04:53:04.251Z,9.03
2023-03-22T04:55:34.285Z,8.99
2023-03-22T04:58:02.543Z,8.95
2023-03-22T05:00:30.721Z,8.91
2023-03-22T05:02:59.426Z,8.95
2023-03-22T05:05:28.933Z,8.98
2023-03-22T05:07:57.644Z,8.95
2023-03-22T05:10:25.843Z,8.93
2023-03-22T05:12:53.981Z,8.97
2023-03-22T05:15:22.147Z,8.93
2023-03-22T05:17:50.309Z,8.93
2023-03-22T05:20:18.970Z,8.88
2023-03-22T05:22:50.658Z,8.86
2023-03-22T05:25:19.020Z,8.87
2023-03-22T05:27:47.049Z,8.86
2023-03-22T05:30:15.716Z,8.83
2023-03-22T05:32:44.283Z,8.86
2023-03-22T05:35:13.025Z,8.84
2023-03-22T05:37:41.640Z,8.78
2023-03-22T05:40:12.655Z,8.87
2023-03-22T05:42:40.845Z,8.90
2023-03-22T05:45:10.481Z,8.91
2023-03-22T05:47:39.637Z,8.90
2023-03-22T05:50:09.779Z,8.91
2023-03-22T05:52:37.949Z,8.92
2023-03-22T05:55:07.421Z,8.92
2023-03-22T05:57:36.941Z,8.89
2023-03-22T06:00:10.544Z,8.87
2023-03-22T06:02:38.735Z,8.93
2023-03-22T06:05:07.949Z,8.92
2023-03-22T06:07:35.999Z,8.86
2023-03-22T06:10:04.259Z,8.88
2023-03-22T06:12:32.696Z,8.88
2023-03-22T06:15:02.273Z,8.94
2023-03-22T06:17:30.728Z,8.87
2023-03-22T06:19:58.963Z,8.88
2023-03-22T06:22:27.330Z,8.86
2023-03-22T06:24:55.509Z,8.82
2023-03-22T06:27:23.656Z,8.79
2023-03-22T06:29:54.811Z,8.81
2023-03-22T06:32:24.724Z,8.80
2023-03-22T06:34:52.765Z,8.80
2023-03-22T06:37:21.002Z,8.79
2023-03-22T06:39:49.445Z,8.83
2023-03-22T06:42:17.602Z,8.83
2023-03-22T06:44:45.831Z,8.86
2023-03-22T06:47:14.075Z,8.82
2023-03-22T06:49:43.698Z,8.85
2023-03-22T06:52:11.877Z,8.86
2023-03-22T06:54:39.956Z,8.80
2023-03-22T06:57:08.240Z,8.85
2023-03-22T06:59:36.440Z,8.84
2023-03-22T07:02:04.567Z,8.90
2023-03-22T07:04:33.310Z,8.88
2023-03-22T07:07:03.481Z,8.93
2023-03-22T07:09:31.737Z,8.94
2023-03-22T07:11:59.940Z,8.93
2023-03-22T07:14:28.037Z,8.99
2023-03-22T07:16:56.889Z,9.03
2023-03-22T07:19:25.844Z,9.05
2023-03-22T07:21:54.036Z,9.06
2023-03-22T07:24:23.571Z,9.05
2023-03-22T07:26:51.636Z,9.05
2023-03-22T07:29:19.715Z,9.08
2023-03-22T07:31:47.908Z,9.09
2023-03-22T07:34:16.456Z,9.07
2023-03-22T07:36:44.694Z,9.11
2023-03-22T07:39:12.964Z,9.17
2023-03-22T07:41:42.528Z,9.19
2023-03-22T07:44:17.768Z,9.21
2023-03-22T07:46:46.456Z,9.25
2023-03-22T07:49:15.340Z,9.21
2023-03-22T07:51:43.468Z,9.23
2023-03-22T07:54:14.060Z,9.28
2023-03-22T07:56:48.134Z,9.32
2023-03-22T07:59:16.553Z,9.35
2023-03-22T08:01:45.281Z,9.36
2023-03-22T08:04:13.473Z,9.41
2023-03-22T08:06:42.673Z,9.47
2023-03-22T08:09:10.728Z,9.50
2023-03-22T08:11:38.896Z,9.55
2023-03-22T08:14:08.950Z,9.60
2023-03-22T08:16:38.552Z,9.66
2023-03-22T08:19:07.559Z,9.71
2023-03-22T08:21:35.598Z,9.75
2023-03-22T08:24:03.791Z,9.79
2023-03-22T08:26:31.976Z,9.85
2023-03-22T08:29:00.038Z,9.92
2023-03-22T08:31:29.704Z,10.05
2023-03-22T08:33:57.922Z,10.16
2023-03-22T08:36:26.090Z,10.26
2023-03-22T08:38:54.443Z,10.40
2023-03-22T08:41:23.712Z,10.56
2023-03-22T08:43:52.221Z,10.66
2023-03-22T08:46:20.390Z,10.76
2023-03-22T08:48:51.584Z,10.91
2023-03-22T08:51:20.611Z,11.02
2023-03-22T08:53:49.573Z,11.11
2023-03-22T08:56:17.865Z,11.18
2023-03-22T08:58:46.896Z,11.31
2023-03-22T09:01:16.804Z,11.40
2023-03-22T09:03:45.020Z,11.49
2023-03-22T09:06:14.962Z,11.66
2023-03-22T09:08:43.265Z,11.70
2023-03-22T09:11:12.218Z,11.78
2023-03-22T09:13:40.925Z,11.83
2023-03-22T09:16:09.803Z,11.91
2023-03-22T09:18:38.261Z,11.89
2023-03-22T09:21:07.653Z,11.92
2023-03-22T09:23:38.419Z,11.96
2023-03-22T09:26:08.176Z,12.02
2023-03-22T09:28:37.653Z,12.08
2023-03-22T09:31:09.167Z,12.03
2023-03-22T09:33:38.966Z,12.06
2023-03-22T09:36:07.642Z,12.15
2023-03-22T09:38:37.504Z,12.14
2023-03-22T09:41:08.731Z,12.15
2023-03-22T09:43:39.276Z,12.23
2023-03-22T09:46:14.282Z,12.21
2023-03-22T09:48:48.395Z,12.27
2023-03-22T09:51:29.292Z,12.20
2023-03-22T09:53:58.995Z,12.12
2023-03-22T09:56:29.241Z,12.10
2023-03-22T09:59:07.765Z,11.97
2023-03-22T10:01:43.412Z,12.01
2023-03-22T10:04:34.560Z,12.07
2023-03-22T10:07:10.975Z,12.20
2023-03-22T10:09:50.642Z,12.21
2023-03-22T10:12:27.210Z,12.18
2023-03-22T10:15:05.680Z,12.28
2023-03-22T10:17:36.812Z,12.39
2023-03-22T10:20:09.629Z,12.51
2023-03-22T10:22:42.794Z,12.68
2023-03-22T10:25:18.835Z,12.90
2023-03-22T10:27:49.947Z,13.10
2023-03-22T10:30:22.897Z,13.33
2023-03-22T10:32:58.322Z,13.45
2023-03-22T10:35:27.193Z,13.60
2023-03-22T10:37:57.396Z,13.68
2023-03-22T10:40:30.143Z,13.71
2023-03-22T10:43:02.166Z,13.86
2023-03-22T10:45:33.314Z,14.00
2023-03-22T10:48:05.805Z,14.05
2023-03-22T10:50:37.118Z,14.20
2023-03-22T10:53:08.624Z,14.32
2023-03-22T10:55:42.604Z,14.44
2023-03-22T10:58:14.949Z,14.45
2023-03-22T11:00:47.378Z,14.49
2023-03-22T11:03:30.125Z,14.55
2023-03-22T11:06:03.652Z,14.75
2023-03-22T11:08:40.382Z,14.86
2023-03-22T11:11:17.750Z,14.98
2023-03-22T11:13:51.770Z,14.86
2023-03-22T11:16:20.346Z,14.74
2023-03-22T11:18:48.792Z,14.83
2023-03-22T11:21:18.566Z,14.82
2023-03-22T11:23:55.559Z,14.78
2023-03-22T11:26:31.671Z,14.74
2023-03-22T11:29:15.140Z,14.73
2023-03-22T11:31:58.965Z,14.68
2023-03-22T11:34:29.998Z,14.76
2023-03-22T11:37:01.260Z,14.87
2023-03-22T11:39:30.730Z,14.98
2023-03-22T11:42:04.071Z,14.99
2023-03-22T11:44:35.960Z,14.92
2023-03-22T11:47:06.796Z,14.90
2023-03-22T11:49:43.960Z,14.67
2023-03-22T11:52:17.712Z,14.56
2023-03-22T11:54:49.120Z,14.73
2023-03-22T11:57:22.795Z,14.78
2023-03-22T11:59:58.766Z,14.92
2023-03-22T12:02:30.699Z,15.00
2023-03-22T12:05:06.055Z,15.05
2023-03-22T12:07:37.956Z,15.05
2023-03-22T12:10:13.303Z,15.08
2023-03-22T12:12:48.156Z,15.18
2023-03-22T12:15:21.428Z,15.38
2023-03-22T12:17:56.980Z,15.31
2023-03-22T12:20:39.195Z,15.30
2023-03-22T12:23:16.727Z,15.16
2023-03-22T12:25:50.699Z,15.20
2023-03-22T12:28:24.630Z,15.20
2023-03-22T12:30:56.259Z,15.10
2023-03-22T12:33:28.510Z,15.03
2023-03-22T12:36:00.002Z,15.23
2023-03-22T12:38:35.649Z,15.43
2023-03-22T12:41:07.356Z,15.50
2023-03-22T12:43:44.568Z,15.46
2023-03-22T12:46:18.925Z,15.54
2023-03-22T12:48:50.944Z,15.52
2023-03-22T12:51:19.254Z,15.45
2023-03-22T12:53:50.389Z,15.43
2023-03-22T12:56:21.456Z,15.49
2023-03-22T12:58:53.786Z,15.71
2023-03-22T13:01:29.751Z,15.84
2023-03-22T13:03:59.547Z,15.94
2023-03-22T13:06:34.546Z,16.05
2023-03-22T13:09:15.950Z,16.00
2023-03-22T13:11:45.507Z,15.93
2023-03-22T13:14:56.231Z,15.98
2023-03-22T13:17:51.285Z,16.07
2023-03-22T13:20:27.923Z,16.12
2023-03-22T13:23:28.905Z,16.07
2023-03-22T13:26:03.694Z,16.06
2023-03-22T13:28:37.419Z,16.03
2023-03-22T13:31:08.137Z,16.16
2023-03-22T13:33:38.950Z,16.23
2023-03-22T13:36:23.076Z,16.25
2023-03-22T13:38:56.341Z,16.11
2023-03-22T13:41:29.139Z,16.01
2023-03-22T13:43:59.570Z,16.11
2023-03-22T13:46:48.290Z,16.18
2023-03-22T13:49:36.635Z,16.25
2023-03-22T13:52:09.433Z,16.15
2023-03-22T13:54:43.788Z,16.09
2023-03-22T13:57:39.167Z,16.12
2023-03-22T14:00:20.698Z,16.10
2023-03-22T14:02:51.936Z,15.95
2023-03-22T14:05:24.383Z,16.02
2023-03-22T14:07:56.335Z,15.95
2023-03-22T14:10:29.898Z,15.68
2023-03-22T14:13:03.606Z,15.56
2023-03-22T14:15:35.829Z,15.39
2023-03-22T14:18:13.939Z,15.33
2023-03-22T14:20:42.935Z,15.12
